createdAt,value
2022-07-31T00:00:19.239Z,21.76
2022-07-31T00:02:46.920Z,21.74
2022-07-31T00:05:14.530Z,21.70
2022-07-31T00:07:41.564Z,21.65
2022-07-31T00:10:09.272Z,21.67
2022-07-31T00:12:36.403Z,21.62
2022-07-31T00:15:06.906Z,21.69
2022-07-31T00:17:34.347Z,21.68
2022-07-31T00:20:02.027Z,21.59
2022-07-31T00:22:29.113Z,21.55
2022-07-31T00:24:56.851Z,21.58
2022-07-31T00:27:24.030Z,21.52
2022-07-31T00:29:51.320Z,21.47
2022-07-31T00:32:18.718Z,21.49
2022-07-31T00:34:45.811Z,21.50
2022-07-31T00:37:35.951Z,21.46
2022-07-31T00:40:05.584Z,21.49
2022-07-31T00:42:32.776Z,21.43
2022-07-31T00:45:00.125Z,21.46
2022-07-31T00:47:27.374Z,21.47
2022-07-31T00:49:54.989Z,21.44
2022-07-31T00:52:22.033Z,21.40
2022-07-31T00:54:49.305Z,21.35
2022-07-31T00:57:16.402Z,21.26
2022-07-31T00:59:44.296Z,21.26
2022-07-31T01:02:12.282Z,21.23
2022-07-31T01:04:54.762Z,21.24
2022-07-31T01:07:21.723Z,21.18
2022-07-31T01:09:49.906Z,21.21
2022-07-31T01:12:38.357Z,21.21
2022-07-31T01:15:10.242Z,21.18
2022-07-31T01:17:40.321Z,21.16
2022-07-31T01:20:08.825Z,21.13
2022-07-31T01:23:31.011Z,21.14
2022-07-31T01:26:35.995Z,21.12
2022-07-31T01:29:24.277Z,21.11
2022-07-31T01:32:06.161Z,21.13
2022-07-31T01:34:52.270Z,21.15
2022-07-31T01:37:32.156Z,21.14
2022-07-31T01:40:06.588Z,21.14
2022-07-31T01:42:37.518Z,21.13
2022-07-31T01:45:10.667Z,21.10
2022-07-31T01:47:43.012Z,20.98
2022-07-31T01:50:42.434Z,21.05
2022-07-31T01:53:00.928Z,21.00
2022-07-31T01:55:31.073Z,20.96
2022-07-31T01:58:21.624Z,20.94
2022-07-31T02:00:52.152Z,20.92
2022-07-31T02:03:43.728Z,20.91
2022-07-31T02:06:10.804Z,20.89
2022-07-31T02:08:38.989Z,20.83
2022-07-31T02:11:07.054Z,20.68
2022-07-31T02:13:37.898Z,20.77
2022-07-31T02:16:06.169Z,20.68
2022-07-31T02:18:35.273Z,20.78
2022-07-31T02:21:02.316Z,20.79
2022-07-31T02:23:29.345Z,20.80
2022-07-31T02:25:57.117Z,20.77
2022-07-31T02:28:26.059Z,20.76
2022-07-31T02:30:54.317Z,20.75
2022-07-31T02:33:25.487Z,20.69
2022-07-31T02:35:56.470Z,20.72
2022-07-31T02:38:27.499Z,20.71
2022-07-31T02:41:01.570Z,20.71
2022-07-31T02:43:31.011Z,20.69
2022-07-31T02:45:59.045Z,20.68
2022-07-31T02:48:27.468Z,20.73
2022-07-31T02:50:56.214Z,20.69
2022-07-31T02:53:23.889Z,20.66
2022-07-31T02:55:52.615Z,20.60
2022-07-31T02:58:19.980Z,20.64
2022-07-31T03:00:47.197Z,20.65
2022-07-31T03:03:14.489Z,20.64
2022-07-31T03:05:41.522Z,20.56
2022-07-31T03:08:08.528Z,20.59
2022-07-31T03:10:35.506Z,20.54
2022-07-31T03:13:05.313Z,20.48
2022-07-31T03:15:33.894Z,20.34
2022-07-31T03:18:01.804Z,20.35
2022-07-31T03:20:39.712Z,20.38
2022-07-31T03:23:07.355Z,20.33
2022-07-31T03:25:34.474Z,20.33
2022-07-31T03:28:01.685Z,20.32
2022-07-31T03:30:28.983Z,20.32
2022-07-31T03:32:57.145Z,20.29
2022-07-31T03:35:27.305Z,20.27
2022-07-31T03:37:55.868Z,20.33
2022-07-31T03:40:22.955Z,20.30
2022-07-31T03:42:50.863Z,20.39
2022-07-31T03:45:19.242Z,20.42
2022-07-31T03:47:46.559Z,20.48
2022-07-31T03:50:14.686Z,20.49
2022-07-31T03:52:41.882Z,20.56
2022-07-31T03:55:09.899Z,20.62
2022-07-31T03:57:38.638Z,20.73
2022-07-31T04:00:12.389Z,20.88
2022-07-31T04:02:45.414Z,21.03
2022-07-31T04:05:12.483Z,21.11
2022-07-31T04:07:39.491Z,21.29
2022-07-31T04:10:07.314Z,21.41
2022-07-31T04:12:34.379Z,21.50
2022-07-31T04:15:01.431Z,21.59
2022-07-31T04:17:35.896Z,21.69
2022-07-31T04:20:05.537Z,21.88
2022-07-31T04:22:32.899Z,22.00
2022-07-31T04:24:59.890Z,22.19
2022-07-31T04:27:27.098Z,22.36
2022-07-31T04:29:55.378Z,22.56
2022-07-31T04:32:22.465Z,22.69
2022-07-31T04:34:51.379Z,22.83
2022-07-31T04:37:18.347Z,22.95
2022-07-31T04:39:45.648Z,23.19
2022-07-31T04:42:12.980Z,23.32
2022-07-31T04:44:40.032Z,23.40
2022-07-31T04:47:08.045Z,23.29
2022-07-31T04:49:35.122Z,22.97
2022-07-31T04:52:02.695Z,23.04
2022-07-31T04:54:29.866Z,22.82
2022-07-31T04:56:56.909Z,22.68
2022-07-31T04:59:24.174Z,22.52
2022-07-31T05:02:11.176Z,22.33
2022-07-31T05:04:39.250Z,22.23
2022-07-31T05:07:06.205Z,22.21
2022-07-31T05:09:36.479Z,22.17
2022-07-31T05:12:04.398Z,22.07
2022-07-31T05:14:31.674Z,22.07
2022-07-31T05:16:58.657Z,22.04
2022-07-31T05:19:29.804Z,21.99
2022-07-31T05:22:02.380Z,21.97
2022-07-31T05:24:33.726Z,21.92
2022-07-31T05:27:03.051Z,21.94
2022-07-31T05:29:31.372Z,22.01
2022-07-31T05:32:00.048Z,21.98
2022-07-31T05:34:32.209Z,22.00
2022-07-31T05:37:02.484Z,21.92
2022-07-31T05:39:30.718Z,21.95
2022-07-31T05:41:58.016Z,21.53
2022-07-31T05:44:25.060Z,21.95
2022-07-31T05:49:19.955Z,21.97
2022-07-31T05:51:47.252Z,21.97
2022-07-31T05:54:14.837Z,21.93
2022-07-31T05:56:41.843Z,22.02
2022-07-31T05:59:09.730Z,22.07
2022-07-31T06:01:37.159Z,22.11
2022-07-31T06:04:04.301Z,22.13
2022-07-31T06:06:34.344Z,22.22
2022-07-31T06:09:04.496Z,22.24
2022-07-31T06:11:32.431Z,22.28
2022-07-31T06:13:59.439Z,22.27
2022-07-31T06:16:26.414Z,22.25
2022-07-31T06:18:53.369Z,22.24
2022-07-31T06:23:46.293Z,22.32
2022-07-31T06:26:13.442Z,22.38
2022-07-31T06:28:48.994Z,22.51
2022-07-31T06:31:21.730Z,22.61
2022-07-31T06:33:50.786Z,22.68
2022-07-31T06:36:19.377Z,22.72
2022-07-31T06:38:46.659Z,22.82
2022-07-31T06:41:32.645Z,22.85
2022-07-31T06:43:59.647Z,22.95
2022-07-31T06:46:26.811Z,22.94
2022-07-31T06:48:53.897Z,23.01
2022-07-31T06:51:30.807Z,23.07
2022-07-31T06:54:05.423Z,23.14
2022-07-31T06:56:34.103Z,23.21
2022-07-31T06:59:02.114Z,23.29
2022-07-31T07:01:29.595Z,23.39
2022-07-31T07:03:57.144Z,23.45
2022-07-31T07:06:24.905Z,23.48
2022-07-31T07:08:52.789Z,23.56
2022-07-31T07:11:20.454Z,23.61
2022-07-31T07:13:47.691Z,23.80
2022-07-31T07:16:16.078Z,23.97
2022-07-31T07:18:43.728Z,24.10
2022-07-31T07:21:11.215Z,24.17
2022-07-31T07:23:38.829Z,24.30
2022-07-31T07:26:06.653Z,24.41
2022-07-31T07:28:34.359Z,24.55
2022-07-31T07:31:02.440Z,24.59
2022-07-31T07:33:40.019Z,24.56
2022-07-31T07:36:24.050Z,24.40
2022-07-31T07:38:55.902Z,24.23
2022-07-31T07:41:26.614Z,24.27
2022-07-31T07:43:53.975Z,24.46
2022-07-31T07:46:23.624Z,24.61
2022-07-31T07:48:51.097Z,24.75
2022-07-31T07:51:19.518Z,24.81
2022-07-31T07:53:46.675Z,24.81
2022-07-31T07:56:13.710Z,24.83
2022-07-31T07:58:40.890Z,24.84
2022-07-31T08:01:08.166Z,24.84
2022-07-31T08:03:49.213Z,24.86
2022-07-31T08:06:21.147Z,24.91
2022-07-31T08:08:48.580Z,24.94
2022-07-31T08:11:17.997Z,24.97
2022-07-31T08:13:51.123Z,25.06
2022-07-31T08:16:20.550Z,25.12
2022-07-31T08:18:49.574Z,25.15
2022-07-31T08:21:16.952Z,25.10
2022-07-31T08:23:43.943Z,25.12
2022-07-31T08:26:11.530Z,25.12
2022-07-31T08:28:40.477Z,25.19
2022-07-31T08:31:08.467Z,25.26
2022-07-31T08:33:35.417Z,25.31
2022-07-31T08:36:02.919Z,25.40
2022-07-31T08:38:29.937Z,25.43
2022-07-31T08:40:57.145Z,25.50
2022-07-31T08:44:02.700Z,25.54
2022-07-31T08:46:12.984Z,25.55
2022-07-31T08:48:46.145Z,25.47
2022-07-31T08:51:14.127Z,25.44
2022-07-31T08:53:44.707Z,25.43
2022-07-31T08:56:12.834Z,25.47
2022-07-31T08:58:40.220Z,25.54
2022-07-31T09:01:11.557Z,25.59
2022-07-31T09:03:39.063Z,25.69
2022-07-31T09:06:06.838Z,25.75
2022-07-31T09:08:38.229Z,25.79
2022-07-31T09:11:08.651Z,25.84
2022-07-31T09:13:36.299Z,25.93
2022-07-31T09:16:04.489Z,25.97
2022-07-31T09:18:32.079Z,25.98
2022-07-31T09:21:03.191Z,25.95
2022-07-31T09:23:32.157Z,25.94
2022-07-31T09:26:05.425Z,25.98
2022-07-31T09:28:49.205Z,26.07
2022-07-31T09:31:16.357Z,26.08
2022-07-31T09:33:46.128Z,26.11
2022-07-31T09:36:14.184Z,26.15
2022-07-31T09:38:43.552Z,26.21
2022-07-31T09:41:20.483Z,26.29
2022-07-31T09:44:09.987Z,26.24
2022-07-31T09:46:48.266Z,26.26
2022-07-31T09:49:16.193Z,26.32
2022-07-31T09:51:48.312Z,26.32
2022-07-31T09:54:29.913Z,26.31
2022-07-31T09:56:57.908Z,26.35
2022-07-31T09:59:26.575Z,26.40
2022-07-31T10:01:54.418Z,26.45
2022-07-31T10:04:23.603Z,26.38
2022-07-31T10:06:52.468Z,26.29
2022-07-31T10:09:21.581Z,26.20
2022-07-31T10:11:52.116Z,26.30
2022-07-31T10:14:28.165Z,26.30
2022-07-31T10:17:00.371Z,26.12
2022-07-31T10:19:34.697Z,26.12
2022-07-31T10:22:05.323Z,26.11
2022-07-31T10:24:36.070Z,26.11
2022-07-31T10:27:07.815Z,26.07
2022-07-31T10:29:39.348Z,26.07
2022-07-31T10:32:08.706Z,25.99
2022-07-31T10:34:37.047Z,25.86
2022-07-31T10:37:33.697Z,25.80
2022-07-31T10:40:20.859Z,25.73
2022-07-31T10:43:20.358Z,25.68
2022-07-31T10:45:52.417Z,25.73
2022-07-31T10:48:20.741Z,25.78
2022-07-31T10:51:00.352Z,25.76
2022-07-31T10:53:50.326Z,25.71
2022-07-31T10:56:17.773Z,25.60
2022-07-31T10:58:58.031Z,25.46
2022-07-31T11:01:26.503Z,25.36
2022-07-31T11:04:01.668Z,25.41
2022-07-31T11:06:44.548Z,25.50
2022-07-31T11:09:23.463Z,25.62
2022-07-31T11:11:51.476Z,25.76
2022-07-31T11:14:40.467Z,25.71
2022-07-31T11:17:07.786Z,25.78
2022-07-31T11:19:43.152Z,25.78
2022-07-31T11:22:31.233Z,25.83
2022-07-31T11:25:01.098Z,25.84
2022-07-31T11:27:34.639Z,25.91
2022-07-31T11:30:12.808Z,25.94
2022-07-31T11:32:47.509Z,25.82
2022-07-31T11:35:29.197Z,25.83
2022-07-31T11:37:58.743Z,25.88
2022-07-31T11:40:28.216Z,25.96
2022-07-31T11:43:24.898Z,25.97
2022-07-31T11:45:53.698Z,26.07
2022-07-31T11:48:27.351Z,26.13
2022-07-31T11:50:54.706Z,26.16
2022-07-31T11:53:21.985Z,26.17
2022-07-31T11:56:00.958Z,26.12
2022-07-31T11:58:29.580Z,26.06
2022-07-31T12:00:59.148Z,26.03
2022-07-31T12:03:33.413Z,26.06
2022-07-31T12:06:01.028Z,26.24
2022-07-31T12:08:29.603Z,26.39
2022-07-31T12:10:59.817Z,26.46
2022-07-31T12:13:28.428Z,26.45
2022-07-31T12:15:56.629Z,26.56
2022-07-31T12:18:26.302Z,26.64
2022-07-31T12:21:03.659Z,26.71
2022-07-31T12:23:41.912Z,26.78
2022-07-31T12:26:22.021Z,26.87
2022-07-31T12:29:02.083Z,26.95
2022-07-31T12:31:32.540Z,26.89
2022-07-31T12:33:59.621Z,26.98
2022-07-31T12:36:27.321Z,27.02
2022-07-31T12:39:02.495Z,26.93
2022-07-31T12:41:30.918Z,26.63
2022-07-31T12:44:13.465Z,26.85
2022-07-31T12:46:42.018Z,26.89
2022-07-31T12:49:09.432Z,26.90
2022-07-31T12:51:45.439Z,26.89
2022-07-31T12:54:18.008Z,26.84
2022-07-31T12:56:46.601Z,26.84
2022-07-31T12:59:14.225Z,26.87
2022-07-31T13:01:41.685Z,26.97
2022-07-31T13:04:19.103Z,27.08
2022-07-31T13:06:48.583Z,26.99
2022-07-31T13:09:16.129Z,26.76
2022-07-31T13:11:46.442Z,26.53
2022-07-31T13:14:17.323Z,26.32
2022-07-31T13:16:45.658Z,26.19
2022-07-31T13:19:13.697Z,26.03
2022-07-31T13:21:49.347Z,26.08
2022-07-31T13:24:21.320Z,26.15
2022-07-31T13:26:51.438Z,26.23
2022-07-31T13:29:18.572Z,26.39
2022-07-31T13:31:45.610Z,26.51
2022-07-31T13:34:13.195Z,26.62
2022-07-31T13:36:40.401Z,26.63
2022-07-31T13:39:08.627Z,26.66
2022-07-31T13:41:39.217Z,26.64
2022-07-31T13:44:07.815Z,26.52
2022-07-31T13:46:35.493Z,26.44
2022-07-31T13:49:04.027Z,26.44
2022-07-31T13:51:31.028Z,26.44
2022-07-31T13:53:57.973Z,26.45
2022-07-31T13:56:38.976Z,26.40
2022-07-31T13:59:13.274Z,26.30
2022-07-31T14:02:04.538Z,26.32
2022-07-31T14:04:32.361Z,26.43
2022-07-31T14:07:03.436Z,26.44
2022-07-31T14:09:34.648Z,26.49
2022-07-31T14:12:04.669Z,26.47
2022-07-31T14:14:34.657Z,26.48
2022-07-31T14:17:01.639Z,26.51
2022-07-31T14:19:28.727Z,26.61
2022-07-31T14:21:56.916Z,26.76
2022-07-31T14:24:40.251Z,26.89
2022-07-31T14:27:07.577Z,26.94
2022-07-31T14:29:36.043Z,26.99
2022-07-31T14:32:07.771Z,27.08
2022-07-31T14:34:35.887Z,27.15
2022-07-31T14:37:03.564Z,27.26
2022-07-31T14:39:31.195Z,27.29
2022-07-31T14:41:58.178Z,27.25
2022-07-31T14:44:28.543Z,27.19
2022-07-31T14:46:56.272Z,27.13
2022-07-31T14:49:23.536Z,27.15
2022-07-31T14:51:50.543Z,27.19
2022-07-31T14:54:17.530Z,27.14
2022-07-31T14:57:00.674Z,27.04
2022-07-31T14:59:32.245Z,26.94
2022-07-31T15:02:00.182Z,26.76
2022-07-31T15:04:35.490Z,26.80
2022-07-31T15:07:32.310Z,26.72
2022-07-31T15:09:50.244Z,26.95
2022-07-31T15:12:17.211Z,26.98
2022-07-31T15:14:44.749Z,27.01
2022-07-31T15:17:11.795Z,27.04
2022-07-31T15:19:38.755Z,27.02
2022-07-31T15:22:15.827Z,27.09
2022-07-31T15:24:49.155Z,26.99
2022-07-31T15:27:24.692Z,26.95
2022-07-31T15:30:00.319Z,26.92
2022-07-31T15:32:35.166Z,26.81
2022-07-31T15:35:02.428Z,26.82
2022-07-31T15:37:30.335Z,26.76
2022-07-31T15:40:02.981Z,26.74
2022-07-31T15:42:32.455Z,26.66
2022-07-31T15:44:59.391Z,26.58
2022-07-31T15:47:26.395Z,26.54
2022-07-31T15:49:53.356Z,26.55
2022-07-31T15:52:20.365Z,26.54
2022-07-31T15:54:51.785Z,26.52
2022-07-31T15:57:23.830Z,26.50
2022-07-31T15:59:56.665Z,26.48
2022-07-31T16:02:24.827Z,26.47
2022-07-31T16:04:56.457Z,26.43
2022-07-31T16:08:32.333Z,26.37
2022-07-31T16:10:18.165Z,26.26
2022-07-31T16:12:46.358Z,26.23
2022-07-31T16:15:16.263Z,26.18
2022-07-31T16:17:45.238Z,26.12
2022-07-31T16:20:26.798Z,26.13
2022-07-31T16:23:01.019Z,26.13
2022-07-31T16:25:32.059Z,26.18
2022-07-31T16:28:04.879Z,26.17
2022-07-31T16:30:32.693Z,26.15
2022-07-31T16:32:59.990Z,26.11
2022-07-31T16:35:27.471Z,26.11
2022-07-31T16:37:55.367Z,26.09
2022-07-31T16:40:30.008Z,26.09
2022-07-31T16:43:48.499Z,26.05
2022-07-31T16:45:55.675Z,25.98
2022-07-31T16:48:23.225Z,26.01
2022-07-31T16:50:54.132Z,25.98
2022-07-31T16:54:12.113Z,25.96
2022-07-31T16:56:16.714Z,25.93
2022-07-31T16:58:44.308Z,25.90
2022-07-31T17:01:57.153Z,25.90
2022-07-31T17:04:03.998Z,25.90
2022-07-31T17:06:38.025Z,25.89
2022-07-31T17:09:16.129Z,25.88
2022-07-31T17:11:48.263Z,25.82
2022-07-31T17:14:20.466Z,25.83
2022-07-31T17:16:49.736Z,25.84
2022-07-31T17:19:36.013Z,25.79
2022-07-31T17:22:04.959Z,25.78
2022-07-31T17:24:32.179Z,25.78
2022-07-31T17:26:59.845Z,25.79
2022-07-31T17:29:27.158Z,25.78
2022-07-31T17:31:54.366Z,25.75
2022-07-31T17:34:21.660Z,25.73
2022-07-31T17:36:50.275Z,25.72
2022-07-31T17:39:17.905Z,25.67
2022-07-31T17:41:45.043Z,25.69
2022-07-31T17:44:12.162Z,25.64
2022-07-31T17:46:48.051Z,25.62
2022-07-31T17:49:19.357Z,25.52
2022-07-31T17:51:59.032Z,25.55
2022-07-31T17:54:35.254Z,25.49
2022-07-31T17:57:04.013Z,25.50
2022-07-31T17:59:32.296Z,25.42
2022-07-31T18:02:00.455Z,25.46
2022-07-31T18:04:31.231Z,25.40
2022-07-31T18:07:00.495Z,25.44
2022-07-31T18:09:28.775Z,25.40
2022-07-31T18:11:57.683Z,25.40
2022-07-31T18:14:26.083Z,25.32
2022-07-31T18:16:53.953Z,25.33
2022-07-31T18:19:22.088Z,25.31
2022-07-31T18:21:51.009Z,25.37
2022-07-31T18:24:20.517Z,25.37
2022-07-31T18:26:48.251Z,25.37
2022-07-31T18:29:17.102Z,25.37
2022-07-31T18:31:45.594Z,25.33
2022-07-31T18:34:13.645Z,25.33
2022-07-31T18:36:41.238Z,25.29
2022-07-31T18:39:08.565Z,25.25
2022-07-31T18:41:35.758Z,25.21
2022-07-31T18:44:03.473Z,25.21
2022-07-31T18:46:32.258Z,25.13
2022-07-31T18:48:59.886Z,25.09
2022-07-31T18:51:29.319Z,24.92
2022-07-31T18:53:56.999Z,24.85
2022-07-31T18:56:25.951Z,24.79
2022-07-31T18:58:54.685Z,24.67
2022-07-31T19:01:23.554Z,24.62
2022-07-31T19:03:52.379Z,24.55
2022-07-31T19:06:20.634Z,24.40
2022-07-31T19:08:49.681Z,24.22
2022-07-31T19:11:19.171Z,24.11
2022-07-31T19:13:46.921Z,24.03
2022-07-31T19:16:15.858Z,23.98
2022-07-31T19:18:45.067Z,23.95
2022-07-31T19:21:21.312Z,23.93
2022-07-31T19:23:55.379Z,23.90
2022-07-31T19:26:22.399Z,23.90
2022-07-31T19:28:49.432Z,23.82
2022-07-31T19:31:16.606Z,23.75
2022-07-31T19:33:43.641Z,23.67
2022-07-31T19:36:15.280Z,23.58
2022-07-31T19:38:44.320Z,23.59
2022-07-31T19:41:13.064Z,23.61
2022-07-31T19:43:40.122Z,23.54
2022-07-31T19:46:11.826Z,23.56
2022-07-31T19:48:45.927Z,23.56
2022-07-31T19:51:15.857Z,23.54
2022-07-31T19:53:44.601Z,23.47
2022-07-31T19:56:19.701Z,23.51
2022-07-31T19:58:48.559Z,23.49
2022-07-31T20:01:15.894Z,23.48
2022-07-31T20:03:43.108Z,23.48
2022-07-31T20:06:10.167Z,23.48
2022-07-31T20:08:37.424Z,23.44
2022-07-31T20:11:05.437Z,23.36
2022-07-31T20:13:33.790Z,23.40
2022-07-31T20:16:01.690Z,23.38
2022-07-31T20:18:29.584Z,23.35
2022-07-31T20:21:02.546Z,23.34
2022-07-31T20:23:31.266Z,23.33
2022-07-31T20:25:58.581Z,23.34
2022-07-31T20:28:26.723Z,23.35
2022-07-31T20:30:54.305Z,23.36
2022-07-31T20:33:21.561Z,23.35
2022-07-31T20:35:50.397Z,23.34
2022-07-31T20:38:24.606Z,23.35
2022-07-31T20:40:55.671Z,23.35
2022-07-31T20:43:26.240Z,23.36
2022-07-31T20:45:57.130Z,23.34
2022-07-31T20:48:32.823Z,23.32
2022-07-31T20:51:02.809Z,23.35
2022-07-31T20:53:30.464Z,23.32
2022-07-31T20:55:58.523Z,23.36
2022-07-31T20:58:26.522Z,23.36
2022-07-31T21:00:54.609Z,23.37
2022-07-31T21:03:22.303Z,23.39
2022-07-31T21:05:49.831Z,23.35
2022-07-31T21:08:17.655Z,23.30
2022-07-31T21:10:45.192Z,23.35
2022-07-31T21:13:12.566Z,23.38
2022-07-31T21:15:43.035Z,23.38
2022-07-31T21:18:19.813Z,23.36
2022-07-31T21:20:52.013Z,23.33
2022-07-31T21:23:23.053Z,23.31
2022-07-31T21:25:52.313Z,23.32
2022-07-31T21:28:19.833Z,23.26
2022-07-31T21:30:47.609Z,23.27
2022-07-31T21:33:15.120Z,23.31
2022-07-31T21:35:42.585Z,23.31
2022-07-31T21:38:12.297Z,23.32
2022-07-31T21:40:40.726Z,23.23
2022-07-31T21:43:09.140Z,23.24
2022-07-31T21:45:50.426Z,23.22
2022-07-31T21:48:25.150Z,23.20
2022-07-31T21:50:53.718Z,23.15
2022-07-31T21:53:21.095Z,23.11
2022-07-31T21:55:48.117Z,23.17
2022-07-31T21:58:15.281Z,23.18
2022-07-31T22:00:42.884Z,23.18
2022-07-31T22:03:10.080Z,23.20
2022-07-31T22:05:55.958Z,23.22
2022-07-31T22:08:22.926Z,23.18
2022-07-31T22:10:52.097Z,23.25
2022-07-31T22:13:20.095Z,23.25
2022-07-31T22:15:59.370Z,23.23
2022-07-31T22:18:36.901Z,23.28
2022-07-31T22:21:07.640Z,23.27
2022-07-31T22:23:36.205Z,23.29
2022-07-31T22:26:03.819Z,23.28
2022-07-31T22:28:31.676Z,23.27
2022-07-31T22:30:59.282Z,23.25
2022-07-31T22:33:27.681Z,23.23
2022-07-31T22:36:02.515Z,23.22
2022-07-31T22:38:31.011Z,23.21
2022-07-31T22:41:02.202Z,23.21
2022-07-31T22:44:12.427Z,23.15
2022-07-31T22:46:17.684Z,23.16
2022-07-31T22:48:46.446Z,23.16
2022-07-31T22:51:14.803Z,23.17
2022-07-31T22:53:49.121Z,23.13
2022-07-31T22:56:17.777Z,23.17
2022-07-31T22:58:44.754Z,23.16
2022-07-31T23:01:11.797Z,23.21
2022-07-31T23:03:38.780Z,23.23
2022-07-31T23:06:30.823Z,23.24
2022-07-31T23:08:54.591Z,23.27
2022-07-31T23:11:23.258Z,23.28
2022-07-31T23:13:51.472Z,23.23
2022-07-31T23:16:20.320Z,23.29
2022-07-31T23:18:47.845Z,23.29
2022-07-31T23:21:14.975Z,23.27
2022-07-31T23:23:41.942Z,23.25
2022-07-31T23:26:15.864Z,23.22
2022-07-31T23:28:42.824Z,23.20
2022-07-31T23:31:09.889Z,23.21
2022-07-31T23:33:36.866Z,23.18
2022-07-31T23:36:04.175Z,23.21
2022-07-31T23:38:31.571Z,23.24
2022-07-31T23:40:58.672Z,23.19
2022-07-31T23:43:26.028Z,23.23
2022-07-31T23:45:54.151Z,23.22
2022-07-31T23:48:21.524Z,23.25
2022-07-31T23:50:49.173Z,23.22
2022-07-31T23:53:16.628Z,23.22
2022-07-31T23:55:44.102Z,23.23
2022-07-31T23:58:11.865Z,23.15
